Time;durP1;ratioP1;P1;durP2;ratioP2;P2;SDS_P1;SDS_P2;PMS_P1;PMS_P2;Temp;Humidity;BMP_temperature;BMP_pressure;BME280_temperature;BME280_humidity;BME280_pressure;Samples;Min_cycle;Max_cycle;Signal;HPM_P1;HPM_P2
2023/03/30 00:00:33;;;;;;;103.22;64.38;;;231.00;2252.80;;;;;;5052230;28;20029;-61
2023/03/30 00:03:01;;;;;;;76.00;44.40;;;230.90;2252.80;;;;;;5052110;28;20462;-60
2023/03/30 00:05:28;;;;;;;98.40;63.97;;;230.90;2252.80;;;;;;5051994;28;20478;-61
2023/03/30 00:07:54;;;;;;;58.15;36.42;;;230.90;2252.80;;;;;;5052289;28;20079;-60
2023/03/30 00:10:20;;;;;;;51.63;34.90;;;230.70;2252.80;;;;;;5052285;28;20124;-61
2023/03/30 00:12:49;;;;;;;72.10;43.13;;;230.80;2252.80;;;;;;5052260;28;20017;-60
2023/03/30 00:15:17;;;;;;;37.45;22.90;;;230.90;2252.80;;;;;;5051914;28;20094;-61
2023/03/30 00:17:44;;;;;;;34.20;22.63;;;230.60;2252.80;;;;;;5051607;28;20025;-65
2023/03/30 00:20:12;;;;;;;34.67;23.85;;;230.70;2252.80;;;;;;5051605;28;20029;-61
2023/03/30 00:22:39;;;;;;;40.25;25.02;;;230.70;2252.80;;;;;;5051792;28;20024;-61
2023/03/30 00:25:07;;;;;;;34.25;23.20;;;230.70;2252.80;;;;;;5051502;28;20025;-60
2023/03/30 00:27:34;;;;;;;27.67;17.85;;;230.70;2252.80;;;;;;5051483;28;20374;-61
2023/03/30 00:29:59;;;;;;;46.88;34.08;;;230.70;2252.80;;;;;;5051258;28;20017;-70
2023/03/30 00:32:25;;;;;;;29.58;23.85;;;230.70;2252.80;;;;;;5051505;28;20379;-62
2023/03/30 00:34:51;;;;;;;46.47;34.83;;;230.70;2252.80;;;;;;5050611;28;20518;-61
2023/03/30 00:37:17;;;;;;;50.50;31.85;;;230.70;2252.80;;;;;;5052074;28;20029;-61
2023/03/30 00:39:43;;;;;;;35.55;24.17;;;230.70;2252.80;;;;;;5043478;28;20364;-70
2023/03/30 00:42:16;;;;;;;35.55;27.38;;;230.70;2252.80;;;;;;5043655;28;20375;-61
2023/03/30 00:45:09;;;;;;;30.63;23.73;;;230.70;2252.80;;;;;;5051067;28;20017;-61
2023/03/30 00:47:42;;;;;;;37.57;23.90;;;230.60;2252.80;;;;;;5050976;28;20067;-61
2023/03/30 00:50:08;;;;;;;38.92;24.17;;;230.70;2252.80;;;;;;5051438;28;20619;-62
2023/03/30 00:52:36;;;;;;;35.47;23.95;;;230.60;2252.80;;;;;;5051067;28;20093;-70
2023/03/30 00:55:04;;;;;;;41.33;24.17;;;230.50;2252.80;;;;;;5050723;28;20037;-60
2023/03/30 00:57:31;;;;;;;39.20;27.05;;;230.50;2252.80;;;;;;5049993;28;20025;-70
2023/03/30 00:59:56;;;;;;;31.13;21.70;;;230.50;2252.80;;;;;;5050883;28;20105;-61
2023/03/30 01:02:22;;;;;;;37.80;24.35;;;230.40;2252.80;;;;;;5050919;28;20111;-61
2023/03/30 01:04:51;;;;;;;38.63;26.35;;;230.50;2252.80;;;;;;5051180;28;20100;-61
2023/03/30 01:07:18;;;;;;;43.15;27.67;;;230.60;2252.80;;;;;;5050823;28;20029;-61
2023/03/30 01:09:44;;;;;;;35.05;23.45;;;230.50;2252.80;;;;;;5050914;28;20071;-60
2023/03/30 01:12:10;;;;;;;35.33;23.13;;;230.60;2252.80;;;;;;5051128;28;20568;-61
2023/03/30 01:14:37;;;;;;;31.70;19.20;;;230.60;2252.80;;;;;;5050482;28;20483;-62
2023/03/30 01:17:21;;;;;;;30.08;20.77;;;230.50;2252.80;;;;;;5050492;28;20028;-60
2023/03/30 01:20:16;;;;;;;34.13;23.98;;;230.50;2252.80;;;;;;5051025;28;20119;-60
2023/03/30 01:23:14;;;;;;;37.10;23.10;;;230.50;2252.80;;;;;;5050598;28;20061;-72
2023/03/30 01:26:01;;;;;;;34.80;22.70;;;205.60;2252.80;;;;;;5025554;28;20020;-62
2023/03/30 01:28:36;;;;;;;31.02;20.88;;;205.70;2252.80;;;;;;5050072;28;20486;-60
2023/03/30 01:31:24;;;;;;;36.83;21.73;;;230.40;2252.80;;;;;;5050385;28;20025;-61
2023/03/30 01:34:34;;;;;;;34.03;21.05;;;230.40;2252.80;;;;;;5025173;28;20091;-61
2023/03/30 01:37:16;;;;;;;41.03;24.83;;;230.40;2252.80;;;;;;5021659;28;20139;-61
2023/03/30 01:39:47;;;;;;;40.67;26.65;;;205.70;2252.80;;;;;;5047615;28;20033;-61
2023/03/30 01:42:36;;;;;;;45.25;29.85;;;205.70;2252.80;;;;;;5048072;28;20017;-60
2023/03/30 01:45:02;;;;;;;38.70;28.10;;;205.60;2252.80;;;;;;5047094;28;20586;-60
2023/03/30 01:47:37;;;;;;;39.72;23.88;;;205.70;2252.80;;;;;;5047936;28;20124;-61
2023/03/30 01:50:10;;;;;;;27.35;18.27;;;205.60;2252.80;;;;;;5034490;28;20060;-61
2023/03/30 01:52:41;;;;;;;33.63;18.67;;;205.60;2252.80;;;;;;5031263;28;20033;-62
2023/03/30 01:55:09;;;;;;;25.98;16.73;;;205.70;2252.80;;;;;;5047427;28;20463;-61
2023/03/30 01:57:50;;;;;;;27.38;18.33;;;205.70;2252.80;;;;;;5047518;28;20025;-59
2023/03/30 02:00:20;;;;;;;29.23;19.08;;;205.60;2252.80;;;;;;5047551;28;20482;-60
2023/03/30 02:02:54;;;;;;;24.17;15.63;;;205.70;2252.80;;;;;;5047344;28;20031;-62
2023/03/30 02:05:23;;;;;;;25.13;16.77;;;205.50;2252.80;;;;;;5047155;28;20396;-61
2023/03/30 02:07:55;;;;;;;30.13;17.38;;;205.60;2252.80;;;;;;5047526;28;20021;-61
2023/03/30 02:10:26;;;;;;;36.75;25.13;;;205.60;2252.80;;;;;;5047306;28;20044;-60
2023/03/30 02:12:54;;;;;;;43.72;28.63;;;205.70;2252.80;;;;;;5048567;28;20479;-61
2023/03/30 02:15:21;;;;;;;36.28;25.75;;;205.70;2252.80;;;;;;5049274;28;20033;-62
2023/03/30 02:17:47;;;;;;;30.83;20.42;;;205.70;2252.80;;;;;;5049923;28;20106;-60
2023/03/30 02:20:16;;;;;;;19.10;12.63;;;205.70;2252.80;;;;;;5049297;28;20028;-60
2023/03/30 02:22:43;;;;;;;19.88;13.02;;;205.60;2252.80;;;;;;5049241;28;20028;-60
2023/03/30 02:25:09;;;;;;;15.80;10.50;;;205.70;2252.80;;;;;;5049233;28;20151;-60
2023/03/30 02:27:36;;;;;;;18.42;11.95;;;205.70;2252.80;;;;;;5048991;28;20426;-60
2023/03/30 02:30:03;;;;;;;15.85;11.38;;;205.70;2252.80;;;;;;5048951;28;20033;-64
2023/03/30 02:32:53;;;;;;;20.27;12.02;;;205.70;2252.80;;;;;;5049262;28;20029;-60
2023/03/30 02:35:49;;;;;;;21.70;13.77;;;230.40;2252.80;;;;;;5046902;28;20139;-68
2023/03/30 02:38:16;;;;;;;33.75;20.05;;;230.40;2252.80;;;;;;5047013;28;20045;-61
2023/03/30 02:40:44;;;;;;;27.77;18.63;;;205.70;2252.80;;;;;;5046546;28;20043;-60
2023/03/30 02:43:32;;;;;;;23.42;16.38;;;205.70;2252.80;;;;;;5047133;28;20027;-60
2023/03/30 02:46:03;;;;;;;21.75;15.07;;;205.60;2252.80;;;;;;5046560;28;20045;-61
2023/03/30 02:48:33;;;;;;;21.13;14.13;;;205.70;2252.80;;;;;;5047194;28;20032;-61
2023/03/30 02:51:08;;;;;;;23.95;17.13;;;205.60;2252.80;;;;;;5046604;28;20506;-69
2023/03/30 02:53:44;;;;;;;22.23;15.07;;;205.60;2252.80;;;;;;5046584;28;20048;-61
2023/03/30 02:56:19;;;;;;;21.38;15.10;;;205.60;2252.80;;;;;;5046484;28;20041;-62
2023/03/30 02:58:53;;;;;;;27.48;17.83;;;205.50;2252.80;;;;;;5046819;28;20029;-61
2023/03/30 03:01:56;;;;;;;39.47;24.27;;;205.40;2252.80;;;;;;5046753;28;20025;-60
2023/03/30 03:04:24;;;;;;;41.42;25.98;;;205.30;2252.80;;;;;;5037084;28;20040;-65
2023/03/30 03:06:51;;;;;;;38.85;23.27;;;205.10;2252.80;;;;;;5046755;28;20033;-67
2023/03/30 03:09:23;;;;;;;50.63;32.30;;;205.10;2252.80;;;;;;5046594;28;20035;-62
2023/03/30 03:11:50;;;;;;;49.63;30.88;;;205.10;2252.80;;;;;;5046964;28;20033;-70
2023/03/30 03:14:16;;;;;;;53.78;32.13;;;205.10;2252.80;;;;;;5048577;28;20029;-63
2023/03/30 03:16:42;;;;;;;51.58;33.17;;;205.00;2252.80;;;;;;5035265;28;20044;-70
2023/03/30 03:19:08;;;;;;;49.35;33.70;;;205.00;2252.80;;;;;;5049997;28;20032;-67
2023/03/30 03:21:35;;;;;;;53.00;32.08;;;204.80;2252.80;;;;;;5053032;28;20021;-61
2023/03/30 03:24:00;;;;;;;54.00;33.17;;;180.10;2252.80;;;;;;5026875;28;20091;-60
2023/03/30 03:26:26;;;;;;;49.17;32.15;;;180.00;2252.80;;;;;;5052900;28;20685;-61
2023/03/30 03:28:52;;;;;;;44.53;29.23;;;179.90;2252.80;;;;;;5052651;28;20152;-61
2023/03/30 03:31:18;;;;;;;40.05;27.50;;;179.90;2252.80;;;;;;5052127;28;20029;-61
2023/03/30 03:33:43;;;;;;;40.85;27.52;;;179.80;2252.80;;;;;;5052639;28;20486;-67
2023/03/30 03:36:10;;;;;;;44.88;29.90;;;179.70;2252.80;;;;;;5052343;28;20499;-62
2023/03/30 03:38:36;;;;;;;43.67;26.42;;;179.80;2252.80;;;;;;5053146;28;20039;-71
2023/03/30 03:41:03;;;;;;;35.55;24.88;;;179.70;2252.80;;;;;;5052126;28;20108;-61
2023/03/30 03:43:29;;;;;;;40.47;25.42;;;179.70;2252.80;;;;;;5052967;28;20074;-61
2023/03/30 03:45:55;;;;;;;47.60;27.33;;;179.70;2252.80;;;;;;5051684;28;20029;-61
2023/03/30 03:48:23;;;;;;;36.88;24.30;;;179.70;2252.80;;;;;;5052716;28;20090;-61
2023/03/30 03:50:54;;;;;;;39.80;25.15;;;179.70;2252.80;;;;;;5052143;28;20078;-68
2023/03/30 03:53:20;;;;;;;88.10;48.88;;;179.70;2252.80;;;;;;5052531;28;20025;-60
2023/03/30 03:55:46;;;;;;;212.82;104.05;;;179.70;2252.80;;;;;;5052337;28;20352;-61
2023/03/30 03:58:12;;;;;;;112.82;63.17;;;179.70;2252.80;;;;;;5052158;28;20032;-60
2023/03/30 04:00:38;;;;;;;51.97;35.25;;;179.70;2252.80;;;;;;5052084;28;20124;-60
2023/03/30 04:03:04;;;;;;;40.05;24.42;;;179.60;2252.80;;;;;;5052210;28;20484;-60
2023/03/30 04:05:30;;;;;;;29.13;18.88;;;179.60;2252.80;;;;;;5051919;28;20490;-62
2023/03/30 04:07:56;;;;;;;26.13;18.30;;;179.60;2252.80;;;;;;5052294;28;20147;-60
2023/03/30 04:10:22;;;;;;;34.28;21.00;;;179.60;2252.80;;;;;;5052033;28;20487;-61
2023/03/30 04:12:48;;;;;;;39.13;23.20;;;179.50;2252.80;;;;;;5052193;28;20024;-61
2023/03/30 04:15:14;;;;;;;36.88;22.60;;;179.50;2252.80;;;;;;5051455;28;20116;-61
2023/03/30 04:17:40;;;;;;;24.63;12.82;;;179.50;2252.80;;;;;;5052167;28;20037;-60
2023/03/30 04:20:10;;;;;;;14.07;8.95;;;179.40;2252.80;;;;;;5052165;28;20025;-62
2023/03/30 04:22:40;;;;;;;11.90;7.15;;;179.40;2252.80;;;;;;5052098;28;20029;-61
2023/03/30 04:25:08;;;;;;;10.65;7.18;;;179.40;2252.80;;;;;;5051720;28;20036;-68
2023/03/30 04:27:36;;;;;;;14.90;10.55;;;179.40;2252.80;;;;;;5051473;28;20028;-61
2023/03/30 04:30:04;;;;;;;40.58;21.13;;;179.30;2252.80;;;;;;5050815;28;20539;-61
2023/03/30 04:32:33;;;;;;;17.63;11.43;;;179.30;2252.80;;;;;;5050893;28;20028;-61
2023/03/30 04:35:00;;;;;;;19.10;10.57;;;179.20;2252.80;;;;;;5051029;28;20081;-61
2023/03/30 04:37:29;;;;;;;15.93;9.38;;;179.20;2252.80;;;;;;5051712;28;20087;-61
2023/03/30 04:39:56;;;;;;;14.32;9.18;;;179.20;2252.80;;;;;;5051403;28;20025;-61
2023/03/30 04:42:29;;;;;;;41.65;26.58;;;179.30;2252.80;;;;;;5051542;28;20029;-61
2023/03/30 04:45:01;;;;;;;24.50;15.90;;;179.50;2252.80;;;;;;5044699;28;20068;-60
2023/03/30 04:47:29;;;;;;;45.78;29.58;;;179.60;2252.80;;;;;;5030825;28;20269;-60
2023/03/30 04:49:55;;;;;;;58.75;35.95;;;179.80;2252.80;;;;;;5045987;28;20033;-69
2023/03/30 04:52:21;;;;;;;14.73;10.00;;;180.00;2252.80;;;;;;5051305;28;20436;-61
2023/03/30 04:54:46;;;;;;;12.70;8.85;;;204.80;2252.80;;;;;;5051579;28;20017;-59
2023/03/30 04:57:13;;;;;;;12.10;8.40;;;180.00;2252.80;;;;;;5050697;28;20024;-61
2023/03/30 04:59:43;;;;;;;10.20;7.80;;;179.90;2252.80;;;;;;5051096;28;20024;-61
2023/03/30 05:02:10;;;;;;;15.05;7.50;;;179.80;2252.80;;;;;;5051087;28;20021;-65
2023/03/30 05:04:36;;;;;;;11.95;7.90;;;180.10;2252.80;;;;;;5051423;28;20037;-61
2023/03/30 05:07:02;;;;;;;15.43;9.00;;;204.90;2252.80;;;;;;5050763;28;20381;-61
2023/03/30 05:09:28;;;;;;;11.85;7.40;;;205.40;2252.80;;;;;;5050942;28;20028;-61
2023/03/30 05:11:54;;;;;;;11.25;7.60;;;205.30;2252.80;;;;;;5050728;28;20021;-62
2023/03/30 05:14:19;;;;;;;13.98;8.68;;;205.70;2252.80;;;;;;5050496;28;20466;-61
2023/03/30 05:16:46;;;;;;;11.65;8.23;;;230.40;2252.80;;;;;;5037210;28;20045;-62
2023/03/30 05:19:11;;;;;;;27.60;16.83;;;230.50;2252.80;;;;;;5050736;28;20379;-65
2023/03/30 05:21:37;;;;;;;25.10;16.80;;;230.50;2252.80;;;;;;5050505;28;20033;-60
2023/03/30 05:24:03;;;;;;;18.33;12.85;;;230.60;2252.80;;;;;;5050392;28;20029;-60
2023/03/30 05:26:29;;;;;;;75.82;48.53;;;230.80;2252.80;;;;;;5050591;28;20032;-61
2023/03/30 05:28:55;;;;;;;52.70;36.50;;;230.80;2252.80;;;;;;5050110;28;20021;-60
2023/03/30 05:31:21;;;;;;;42.17;26.35;;;231.00;2252.80;;;;;;5050208;28;20375;-60
2023/03/30 05:33:47;;;;;;;42.28;24.80;;;231.30;2252.80;;;;;;5050307;28;20436;-60
2023/03/30 05:36:13;;;;;;;39.88;25.92;;;256.20;2252.80;;;;;;5050576;28;20056;-61
2023/03/30 05:38:39;;;;;;;29.70;21.77;;;256.30;2252.80;;;;;;5050014;28;20021;-61
2023/03/30 05:41:05;;;;;;;25.38;15.20;;;256.40;2252.80;;;;;;5049914;28;20060;-61
2023/03/30 05:43:34;;;;;;;24.13;16.80;;;281.80;2278.40;;;;;;5049632;28;20066;-63
2023/03/30 05:46:01;;;;;;;23.13;14.75;;;307.40;2201.60;;;;;;5049953;28;20029;-65
2023/03/30 05:48:27;;;;;;;22.90;18.75;;;308.00;2099.20;;;;;;5050571;28;20032;-66
2023/03/30 05:50:53;;;;;;;24.17;19.20;;;332.90;2048.00;;;;;;5049450;28;20518;-62
2023/03/30 05:53:18;;;;;;;25.15;19.48;;;308.00;2073.60;;;;;;5050739;28;20032;-62
2023/03/30 05:55:46;;;;;;;44.45;31.83;;;333.60;2022.40;;;;;;5049510;28;20143;-61
2023/03/30 05:58:12;;;;;;;82.53;61.80;;;333.30;2022.40;;;;;;5049652;28;20095;-64
2023/03/30 06:00:40;;;;;;;101.22;75.50;;;333.20;2048.00;;;;;;5049662;28;20107;-62
2023/03/30 06:03:06;;;;;;;76.25;56.13;;;359.00;1920.00;;;;;;5049830;28;20032;-62
2023/03/30 06:05:34;;;;;;;84.65;61.67;;;358.70;1920.00;;;;;;5049621;28;20033;-62
2023/03/30 06:08:00;;;;;;;93.80;64.45;;;359.30;1894.40;;;;;;5050096;28;20017;-61
2023/03/30 06:10:26;;;;;;;59.90;46.63;;;409.90;1843.20;;;;;;5049461;28;20028;-62
2023/03/30 06:12:52;;;;;;;50.55;38.88;;;436.10;1638.40;;;;;;5049555;28;20013;-62
2023/03/30 06:15:18;;;;;;;30.67;27.00;;;512.30;1510.40;;;;;;5049578;28;20047;-62
2023/03/30 06:17:44;;;;;;;33.92;26.80;;;538.10;1459.20;;;;;;5049912;28;20119;-67
2023/03/30 06:20:11;;;;;;;43.70;35.42;;;589.10;1356.80;;;;;;5049466;28;20612;-68
2023/03/30 06:22:38;;;;;;;41.03;34.65;;;614.70;1280.00;;;;;;5049678;28;20033;-67
2023/03/30 06:25:04;;;;;;;48.42;38.53;;;640.70;1203.20;;;;;;5049353;28;20115;-67
2023/03/30 06:27:31;;;;;;;52.95;43.80;;;666.20;1177.60;;;;;;5049660;28;20523;-64
2023/03/30 06:29:56;;;;;;;62.58;54.47;;;691.70;1152.00;;;;;;5048860;28;20491;-68
2023/03/30 06:32:22;;;;;;;55.42;47.03;;;691.60;1126.40;;;;;;5049244;28;20033;-67
2023/03/30 06:34:48;;;;;;;54.42;48.58;;;666.30;1152.00;;;;;;5049271;28;20041;-67
2023/03/30 06:37:14;;;;;;;60.05;51.28;;;691.40;1126.40;;;;;;5049096;28;20065;-65
2023/03/30 06:39:40;;;;;;;71.80;56.60;;;716.90;1126.40;;;;;;5049209;28;20090;-63
2023/03/30 06:42:06;;;;;;;61.28;54.78;;;717.00;1126.40;;;;;;5049622;28;20021;-66
2023/03/30 06:44:33;;;;;;;59.80;50.85;;;717.70;1075.20;;;;;;5049359;28;20017;-63
2023/03/30 06:46:59;;;;;;;61.53;53.20;;;717.40;1075.20;;;;;;5048979;28;20020;-62
2023/03/30 06:49:25;;;;;;;73.28;64.10;;;691.60;1100.80;;;;;;5049164;28;20025;-64
2023/03/30 06:51:51;;;;;;;61.60;54.38;;;717.10;1100.80;;;;;;5049050;28;20075;-63
2023/03/30 06:54:19;;;;;;;51.13;44.85;;;666.50;1126.40;;;;;;5048096;28;20025;-63
2023/03/30 06:56:46;;;;;;;60.53;51.10;;;691.40;1126.40;;;;;;5048669;28;20045;-63
2023/03/30 06:59:12;;;;;;;56.15;47.65;;;691.70;1100.80;;;;;;5048269;28;20033;-63
2023/03/30 07:01:38;;;;;;;53.08;47.55;;;717.00;1126.40;;;;;;5049187;28;20024;-64
2023/03/30 07:04:04;;;;;;;46.60;40.63;;;743.20;1075.20;;;;;;5048385;28;20079;-64
2023/03/30 07:06:30;;;;;;;58.78;52.25;;;742.80;1075.20;;;;;;5048934;28;20040;-63
2023/03/30 07:08:56;;;;;;;57.92;51.25;;;717.70;1100.80;;;;;;5048849;28;20017;-63
2023/03/30 07:11:22;;;;;;;68.15;60.85;;;742.90;1075.20;;;;;;5048719;28;20097;-63
2023/03/30 07:13:48;;;;;;;63.80;57.10;;;742.90;1075.20;;;;;;5048736;28;20115;-63
2023/03/30 07:16:13;;;;;;;62.58;54.55;;;768.80;1024.00;;;;;;5048570;28;20045;-63
2023/03/30 07:18:39;;;;;;;50.90;45.50;;;768.60;1024.00;;;;;;5048823;28;20077;-69
2023/03/30 07:21:05;;;;;;;53.55;47.55;;;742.60;1100.80;;;;;;5048925;28;20033;-69
2023/03/30 07:23:31;;;;;;;69.22;53.50;;;742.60;1075.20;;;;;;5048432;28;20040;-63
2023/03/30 07:25:57;;;;;;;56.75;50.58;;;742.70;1100.80;;;;;;5048888;28;20040;-64
2023/03/30 07:28:23;;;;;;;57.97;51.95;;;768.90;1024.00;;;;;;5032886;28;20025;-64
2023/03/30 07:30:48;;;;;;;71.35;63.90;;;794.10;1049.60;;;;;;5028929;28;20021;-64
2023/03/30 07:33:14;;;;;;;60.58;54.17;;;820.10;972.80;;;;;;5030892;28;20391;-64
2023/03/30 07:35:45;;;;;;;60.13;51.28;;;845.10;998.40;;;;;;5048689;28;20059;-69
2023/03/30 07:38:14;;;;;;;57.10;48.80;;;845.70;972.80;;;;;;5048551;28;20104;-66
2023/03/30 07:40:40;;;;;;;49.35;43.22;;;844.90;972.80;;;;;;5049132;28;20115;-68
2023/03/30 07:43:06;;;;;;;54.22;48.72;;;845.10;972.80;;;;;;5048453;28;20480;-69
2023/03/30 07:45:32;;;;;;;50.50;45.55;;;844.90;998.40;;;;;;5048437;28;20029;-68
2023/03/30 07:47:58;;;;;;;58.17;51.83;;;794.40;998.40;;;;;;5048654;28;20010;-64
2023/03/30 07:50:24;;;;;;;67.15;58.65;;;845.30;972.80;;;;;;5034498;28;20033;-70
2023/03/30 07:52:51;;;;;;;53.60;47.80;;;870.40;947.20;;;;;;5032405;28;20052;-66
2023/03/30 07:55:17;;;;;;;45.95;41.60;;;845.70;947.20;;;;;;5048902;28;20065;-69
2023/03/30 07:57:43;;;;;;;46.13;41.30;;;820.00;947.20;;;;;;5030389;28;20383;-68
2023/03/30 08:00:09;;;;;;;51.90;46.35;;;;;;;;;;5044459;28;20025;-65
2023/03/30 08:02:36;;;;;;;46.15;41.53;;;845.70;947.20;;;;;;5048632;28;20638;-69
2023/03/30 08:05:02;;;;;;;41.13;37.22;;;845.70;921.60;;;;;;5048662;28;20127;-63
2023/03/30 08:07:28;;;;;;;48.90;43.83;;;820.10;947.20;;;;;;5052366;28;20132;-69
2023/03/30 08:09:54;;;;;;;50.33;42.55;;;820.00;947.20;;;;;;5047788;28;20058;-70
2023/03/30 08:12:20;;;;;;;44.45;39.63;;;870.50;947.20;;;;;;5032022;28;20538;-65
2023/03/30 08:14:46;;;;;;;46.47;40.53;;;870.40;947.20;;;;;;5050345;28;20021;-66
2023/03/30 08:17:12;;;;;;;53.10;46.42;;;871.10;921.60;;;;;;5051968;28;20102;-65
2023/03/30 08:19:38;;;;;;;39.03;34.85;;;820.10;947.20;;;;;;5051736;28;20383;-65
2023/03/30 08:22:03;;;;;;;33.40;25.15;;;819.60;972.80;;;;;;5052052;28;20025;-63
2023/03/30 08:24:29;;;;;;;33.55;25.25;;;793.80;972.80;;;;;;5051932;28;20451;-64
2023/03/30 08:26:55;;;;;;;26.02;23.08;;;794.10;972.80;;;;;;5051373;28;20052;-63
2023/03/30 08:29:21;;;;;;;27.25;23.73;;;820.10;921.60;;;;;;5051661;28;20127;-64
2023/03/30 08:31:47;;;;;;;30.25;26.38;;;845.70;921.60;;;;;;5050257;28;20439;-68
2023/03/30 08:34:13;;;;;;;26.45;23.75;;;870.90;896.00;;;;;;5050538;28;20088;-69
2023/03/30 08:36:39;;;;;;;19.90;17.90;;;896.00;870.40;;;;;;5039151;28;20041;-64
2023/03/30 08:39:05;;;;;;;20.58;18.55;;;;;;;;;;5050921;28;20051;-69
2023/03/30 08:41:37;;;;;;;30.25;27.08;;;870.90;870.40;;;;;;5050678;28;20013;-65
2023/03/30 08:44:24;;;;;;;;;;;947.30;819.20;;;;;;5044095;28;20056;-69
2023/03/30 08:46:52;;;;;;;54.50;48.97;;;947.50;768.00;;;;;;5051132;28;19912;-69
2023/03/30 08:49:20;;;;;;;16.48;14.77;;;947.50;768.00;;;;;;5050387;28;20033;-65
2023/03/30 08:51:49;;;;;;;13.98;12.75;;;922.40;793.60;;;;;;5050785;28;20021;-69
2023/03/30 08:54:18;;;;;;;12.38;11.07;;;921.60;793.60;;;;;;5051182;28;20026;-67
2023/03/30 08:56:58;;;;;;;24.27;21.77;;;845.40;844.80;;;;;;5050585;28;20025;-69
2023/03/30 08:59:41;;;;;;;12.80;10.90;;;819.80;844.80;;;;;;5050632;28;20088;-69
2023/03/30 09:02:20;;;;;;;20.90;16.85;;;768.90;896.00;;;;;;5051162;28;20021;-63
2023/03/30 09:05:14;;;;;;;9.40;8.45;;;717.70;921.60;;;;;;5051239;28;20037;-63
2023/03/30 09:08:05;;;;;;;9.88;7.95;;;692.10;921.60;;;;;;5051131;28;20378;-66
2023/03/30 09:10:37;;;;;;;20.52;16.83;;;691.90;921.60;;;;;;5048761;28;20506;-65
2023/03/30 09:13:05;;;;;;;12.85;11.18;;;716.80;998.40;;;;;;5050036;28;20128;-67
2023/03/30 09:15:45;;;;;;;9.48;7.63;;;692.10;998.40;;;;;;5038144;28;20030;-63
2023/03/30 09:18:33;;;;;;;11.45;8.38;;;692.10;972.80;;;;;;5038023;28;20554;-64
2023/03/30 09:21:04;;;;;;;9.75;7.45;;;691.20;1075.20;;;;;;5050607;28;20463;-66
2023/03/30 09:23:31;;;;;;;10.32;7.40;;;640.70;1024.00;;;;;;5050777;28;20033;-65
2023/03/30 09:26:16;;;;;;;15.73;10.98;;;665.90;1049.60;;;;;;5031816;28;20024;-64
2023/03/30 09:28:58;;;;;;;12.90;8.88;;;666.00;1024.00;;;;;;5030482;28;20026;-63
2023/03/30 09:31:32;;;;;;;13.23;8.23;;;666.30;1024.00;;;;;;5030575;28;20029;-68
2023/03/30 09:34:24;;;;;;;12.85;7.53;;;666.20;1024.00;;;;;;5030194;28;20013;-67
2023/03/30 09:36:50;;;;;;;13.80;7.20;;;666.20;1024.00;;;;;;5033336;28;20128;-65
2023/03/30 09:39:21;;;;;;;7.43;5.72;;;640.70;1049.60;;;;;;5036249;28;20104;-67
2023/03/30 09:42:00;;;;;;;9.32;5.43;;;640.60;1049.60;;;;;;5050454;28;20048;-65
2023/03/30 09:44:36;;;;;;;6.07;4.40;;;640.50;1100.80;;;;;;5050017;28;20029;-67
2023/03/30 09:47:19;;;;;;;13.75;6.75;;;640.70;1049.60;;;;;;5045038;28;20031;-66
2023/03/30 09:49:45;;;;;;;9.85;5.25;;;640.70;1075.20;;;;;;5033275;28;20501;-67
2023/03/30 09:52:36;;;;;;;8.07;6.32;;;640.70;1024.00;;;;;;5029563;28;20474;-64
2023/03/30 09:55:20;;;;;;;7.95;6.40;;;640.50;1024.00;;;;;;5029810;28;20057;-63
2023/03/30 09:57:47;;;;;;;15.65;6.95;;;640.30;1024.00;;;;;;5031830;28;20032;-62
2023/03/30 10:00:31;;;;;;;9.90;6.68;;;614.90;1100.80;;;;;;5029922;28;20033;-69
2023/03/30 10:03:01;;;;;;;10.48;6.65;;;614.80;1152.00;;;;;;5029747;28;20033;-65
2023/03/30 10:05:29;;;;;;;8.68;5.32;;;640.00;1075.20;;;;;;5030086;28;20614;-67
2023/03/30 10:08:00;;;;;;;18.25;11.05;;;640.00;1075.20;;;;;;5029606;28;20088;-68
2023/03/30 10:10:28;;;;;;;11.00;9.23;;;640.60;1075.20;;;;;;5030008;28;20021;-65
2023/03/30 10:12:55;;;;;;;11.93;10.25;;;640.30;1049.60;;;;;;5029681;28;20022;-67
2023/03/30 10:15:26;;;;;;;15.60;11.32;;;640.20;1049.60;;;;;;5029986;28;20453;-64
2023/03/30 10:17:55;;;;;;;21.55;13.00;;;640.20;1075.20;;;;;;5029799;28;20025;-66
2023/03/30 10:20:27;;;;;;;14.13;7.65;;;615.00;1075.20;;;;;;5029745;28;20022;-66
2023/03/30 10:23:04;;;;;;;10.75;8.32;;;614.80;1100.80;;;;;;5037703;28;20032;-68
2023/03/30 10:25:32;;;;;;;11.05;6.22;;;615.30;1075.20;;;;;;5049492;28;20100;-62
2023/03/30 10:28:03;;;;;;;6.18;4.50;;;615.00;1049.60;;;;;;5049582;28;20021;-61
2023/03/30 10:30:31;;;;;;;18.45;14.43;;;640.00;1049.60;;;;;;5049043;28;20020;-68
2023/03/30 10:33:00;;;;;;;14.60;11.52;;;640.00;1049.60;;;;;;5049290;28;20025;-61
2023/03/30 10:35:35;;;;;;;10.70;8.65;;;615.30;1075.20;;;;;;5048676;28;20074;-62
2023/03/30 10:38:02;;;;;;;12.02;7.50;;;589.50;1126.40;;;;;;5049766;28;20037;-61
2023/03/30 10:40:36;;;;;;;7.65;6.13;;;614.50;1152.00;;;;;;5049508;28;20025;-62
2023/03/30 10:43:02;;;;;;;;;;;614.70;1126.40;;;;;;5049652;28;20044;-63
2023/03/30 10:45:43;;;;;;;7.13;4.85;;;589.20;1126.40;;;;;;5049314;28;20274;-66
2023/03/30 10:48:33;;;;;;;7.20;3.97;;;564.10;1152.00;;;;;;5048656;28;20028;-62
2023/03/30 10:51:13;;;;;;;8.55;4.78;;;564.10;1152.00;;;;;;5049506;28;20025;-66
2023/03/30 10:53:48;;;;;;;13.05;8.70;;;589.70;1100.80;;;;;;5031114;28;20025;-67
2023/03/30 10:56:45;;;;;;;15.73;11.07;;;589.70;1126.40;;;;;;5048656;28;20039;-65
2023/03/30 10:59:26;;;;;;;8.02;5.38;;;589.20;1152.00;;;;;;5048576;28;20064;-68
2023/03/30 11:02:23;;;;;;;9.63;4.97;;;589.20;1152.00;;;;;;5048601;28;20037;-62
2023/03/30 11:05:11;;;;;;;10.13;5.70;;;589.20;1152.00;;;;;;5027003;28;20033;-62
2023/03/30 11:07:56;;;;;;;16.17;9.65;;;589.00;1203.20;;;;;;5048765;28;20442;-61
2023/03/30 11:10:30;;;;;;;32.40;21.30;;;563.90;1177.60;;;;;;5049072;28;20021;-64
2023/03/30 11:13:18;;;;;;;8.57;6.78;;;589.00;1152.00;;;;;;5048790;28;20028;-61
2023/03/30 11:15:52;;;;;;;9.10;6.00;;;564.00;1177.60;;;;;;5024450;28;20033;-67
2023/03/30 11:18:52;;;;;;;8.80;4.78;;;563.40;1203.20;;;;;;5030008;28;20033;-61
2023/03/30 11:21:28;;;;;;;10.57;6.57;;;563.60;1203.20;;;;;;5048795;28;20036;-62
2023/03/30 11:24:15;;;;;;;6.30;4.78;;;563.30;1228.80;;;;;;5048780;28;20021;-61
2023/03/30 11:26:48;;;;;;;12.60;6.85;;;563.60;1177.60;;;;;;5047844;28;20495;-67
2023/03/30 11:29:20;;;;;;;8.45;6.68;;;563.90;1203.20;;;;;;5048518;28;20033;-66
2023/03/30 11:32:11;;;;;;;9.02;5.40;;;563.40;1228.80;;;;;;5048693;28;20029;-62
2023/03/30 11:35:00;;;;;;;10.00;6.75;;;563.30;1228.80;;;;;;5048308;28;20491;-65
2023/03/30 11:37:44;;;;;;;10.10;7.25;;;563.40;1228.80;;;;;;5048761;28;20037;-66
2023/03/30 11:40:19;;;;;;;5.35;3.85;;;538.50;1228.80;;;;;;5026139;28;20051;-65
2023/03/30 11:42:46;;;;;;;11.65;7.07;;;563.30;1177.60;;;;;;5052499;28;21497;-65
2023/03/30 11:45:30;;;;;;;6.75;4.68;;;563.30;1203.20;;;;;;5052320;28;20029;-65
2023/03/30 11:48:11;;;;;;;7.32;3.92;;;563.20;1228.80;;;;;;5052223;28;20432;-63
2023/03/30 11:50:58;;;;;;;9.63;4.90;;;538.00;1203.20;;;;;;5052695;28;20163;-67
2023/03/30 11:53:42;;;;;;;10.43;5.82;;;538.50;1177.60;;;;;;5052278;28;20025;-67
2023/03/30 11:56:34;;;;;;;7.55;4.03;;;538.40;1203.20;;;;;;5051907;28;20124;-66
2023/03/30 11:58:59;;;;;;;11.70;5.88;;;538.00;1228.80;;;;;;5049384;28;20052;-65
2023/03/30 12:01:45;;;;;;;10.57;5.68;;;538.00;1203.20;;;;;;5049771;28;20519;-64
2023/03/30 12:04:18;;;;;;;6.50;4.18;;;538.50;1203.20;;;;;;5049425;28;20048;-64
2023/03/30 12:06:58;;;;;;;6.22;4.45;;;537.90;1203.20;;;;;;5049870;28;20029;-62
2023/03/30 12:10:01;;;;;;;7.70;3.78;;;538.50;1203.20;;;;;;5049708;28;20039;-64
2023/03/30 12:12:35;;;;;;;6.28;4.00;;;538.50;1177.60;;;;;;4971045;28;20027;-61
2023/03/30 12:15:14;;;;;;;6.78;5.10;;;563.30;1177.60;;;;;;4968193;28;20703;-65
2023/03/30 12:17:56;;;;;;;7.68;5.63;;;538.50;1177.60;;;;;;4957634;28;20187;-66
2023/03/30 12:20:45;;;;;;;5.93;3.30;;;538.50;1177.60;;;;;;4949432;28;20517;-65
2023/03/30 12:23:48;;;;;;;6.88;3.28;;;537.80;1203.20;;;;;;4951878;28;20537;-67
2023/03/30 12:26:25;;;;;;;6.57;3.58;;;537.90;1228.80;;;;;;4954003;28;20043;-66